sensor_id;sensor_type;location;lat;lon;timestamp;pressure;altitude;pressure_sealevel;temperature;humidity
65666;BME280;52365;47.464;18.976;2023-11-22T00:00:03;99522.06;;;5.47;75.12
65666;BME280;52365;47.464;18.976;2023-11-22T00:00:24;99530.81;;;5.48;75.07
65666;BME280;52365;47.464;18.976;2023-11-22T00:00:45;99528.59;;;5.46;75.01
65666;BME280;52365;47.464;18.976;2023-11-22T00:01:06;99533.31;;;5.55;74.96
65666;BME280;52365;47.464;18.976;2023-11-22T00:01:27;99527.97;;;5.55;74.83
65666;BME280;52365;47.464;18.976;2023-11-22T00:01:49;99528.50;;;5.50;74.77
65666;BME280;52365;47.464;18.976;2023-11-22T00:02:10;99532.84;;;5.44;74.71
65666;BME280;52365;47.464;18.976;2023-11-22T00:02:31;99533.19;;;5.46;74.69
65666;BME280;52365;47.464;18.976;2023-11-22T00:02:52;99526.34;;;5.45;74.71
65666;BME280;52365;47.464;18.976;2023-11-22T00:03:14;99529.34;;;5.47;74.78
65666;BME280;52365;47.464;18.976;2023-11-22T00:03:35;99529.41;;;5.43;74.80
65666;BME280;52365;47.464;18.976;2023-11-22T00:03:56;99531.03;;;5.41;74.79
65666;BME280;52365;47.464;18.976;2023-11-22T00:04:17;99521.63;;;5.36;74.79
65666;BME280;52365;47.464;18.976;2023-11-22T00:04:38;99530.69;;;5.39;74.88
65666;BME280;52365;47.464;18.976;2023-11-22T00:04:59;99527.94;;;5.42;74.89
65666;BME280;52365;47.464;18.976;2023-11-22T00:05:21;99526.09;;;5.39;74.82
65666;BME280;52365;47.464;18.976;2023-11-22T00:05:42;99525.31;;;5.26;74.79
65666;BME280;52365;47.464;18.976;2023-11-22T00:06:03;99531.03;;;5.12;74.86
65666;BME280;52365;47.464;18.976;2023-11-22T00:06:24;99521.22;;;4.92;74.98
65666;BME280;52365;47.464;18.976;2023-11-22T00:06:45;99523.38;;;4.97;75.32
65666;BME280;52365;47.464;18.976;2023-11-22T00:07:06;99528.87;;;5.07;75.46
65666;BME280;52365;47.464;18.976;2023-11-22T00:07:27;99536.09;;;5.22;75.47
65666;BME280;52365;47.464;18.976;2023-11-22T00:07:49;99528.87;;;5.36;75.27
65666;BME280;52365;47.464;18.976;2023-11-22T00:08:10;99528.59;;;5.46;75.00
65666;BME280;52365;47.464;18.976;2023-11-22T00:08:32;99535.41;;;5.47;74.79
65666;BME280;52365;47.464;18.976;2023-11-22T00:08:53;99530.81;;;5.48;74.59
65666;BME280;52365;47.464;18.976;2023-11-22T00:09:09;99533.19;;;5.46;74.47
65666;BME280;52365;47.464;18.976;2023-11-22T00:09:30;99531.69;;;5.45;74.40
65666;BME280;52365;47.464;18.976;2023-11-22T00:09:52;99534.63;;;5.34;74.29
65666;BME280;52365;47.464;18.976;2023-11-22T00:10:13;99539.09;;;5.24;74.35
65666;BME280;52365;47.464;18.976;2023-11-22T00:10:34;99532.78;;;5.31;74.50
65666;BME280;52365;47.464;18.976;2023-11-22T00:10:55;99534.28;;;5.03;74.33
65666;BME280;52365;47.464;18.976;2023-11-22T00:11:16;99537.19;;;4.79;74.98
65666;BME280;52365;47.464;18.976;2023-11-22T00:11:37;99531.50;;;4.77;75.68
65666;BME280;52365;47.464;18.976;2023-11-22T00:11:58;99545.25;;;4.92;75.73
65666;BME280;52365;47.464;18.976;2023-11-22T00:12:21;99533.88;;;5.04;75.68
65666;BME280;52365;47.464;18.976;2023-11-22T00:12:42;99540.12;;;5.14;75.59
65666;BME280;52365;47.464;18.976;2023-11-22T00:13:03;99536.75;;;5.26;75.36
65666;BME280;52365;47.464;18.976;2023-11-22T00:13:24;99539.22;;;5.34;75.11
65666;BME280;52365;47.464;18.976;2023-11-22T00:13:46;99531.22;;;5.34;74.95
65666;BME280;52365;47.464;18.976;2023-11-22T00:14:07;99536.56;;;5.34;74.86
65666;BME280;52365;47.464;18.976;2023-11-22T00:14:28;99534.19;;;5.23;74.80
65666;BME280;52365;47.464;18.976;2023-11-22T00:14:50;99545.97;;;5.09;74.92
65666;BME280;52365;47.464;18.976;2023-11-22T00:15:11;99534.03;;;5.14;75.03
65666;BME280;52365;47.464;18.976;2023-11-22T00:15:32;99535.59;;;5.27;74.94
65666;BME280;52365;47.464;18.976;2023-11-22T00:15:53;99540.59;;;5.25;74.85
65666;BME280;52365;47.464;18.976;2023-11-22T00:16:14;99541.28;;;5.13;74.73
65666;BME280;52365;47.464;18.976;2023-11-22T00:16:37;99543.47;;;5.02;74.72
65666;BME280;52365;47.464;18.976;2023-11-22T00:16:59;99542.00;;;5.01;74.89
65666;BME280;52365;47.464;18.976;2023-11-22T00:17:22;99547.56;;;5.07;74.97
65666;BME280;52365;47.464;18.976;2023-11-22T00:17:45;99549.06;;;5.08;75.01
65666;BME280;52365;47.464;18.976;2023-11-22T00:18:06;99542.13;;;5.10;74.98
65666;BME280;52365;47.464;18.976;2023-11-22T00:18:27;99554.31;;;5.11;75.01
65666;BME280;52365;47.464;18.976;2023-11-22T00:18:48;99549.22;;;5.17;74.99
65666;BME280;52365;47.464;18.976;2023-11-22T00:19:10;99535.31;;;5.22;74.88
65666;BME280;52365;47.464;18.976;2023-11-22T00:19:31;99549.88;;;5.21;74.81
65666;BME280;52365;47.464;18.976;2023-11-22T00:19:53;99551.78;;;5.20;74.73
65666;BME280;52365;47.464;18.976;2023-11-22T00:20:14;99546.53;;;5.17;74.77
65666;BME280;52365;47.464;18.976;2023-11-22T00:20:35;99543.63;;;5.11;74.82
65666;BME280;52365;47.464;18.976;2023-11-22T00:20:51;99553.22;;;5.09;74.92
65666;BME280;52365;47.464;18.976;2023-11-22T00:21:12;99550.31;;;5.03;75.05
65666;BME280;52365;47.464;18.976;2023-11-22T00:21:33;99548.00;;;5.05;75.10
65666;BME280;52365;47.464;18.976;2023-11-22T00:21:54;99557.00;;;5.11;75.09
65666;BME280;52365;47.464;18.976;2023-11-22T00:22:15;99553.13;;;5.12;75.05
65666;BME280;52365;47.464;18.976;2023-11-22T00:22:36;99548.63;;;5.09;74.95
65666;BME280;52365;47.464;18.976;2023-11-22T00:22:57;99548.75;;;5.05;74.97
65666;BME280;52365;47.464;18.976;2023-11-22T00:23:18;99549.41;;;5.10;74.96
65666;BME280;52365;47.464;18.976;2023-11-22T00:23:39;99557.00;;;5.11;74.94
65666;BME280;52365;47.464;18.976;2023-11-22T00:24:00;99562.62;;;5.00;74.99
65666;BME280;52365;47.464;18.976;2023-11-22T00:24:21;99554.59;;;5.00;75.05
65666;BME280;52365;47.464;18.976;2023-11-22T00:24:42;99556.03;;;4.89;75.20
65666;BME280;52365;47.464;18.976;2023-11-22T00:25:06;99554.34;;;4.95;75.27
65666;BME280;52365;47.464;18.976;2023-11-22T00:25:29;99558.84;;;4.98;75.31
65666;BME280;52365;47.464;18.976;2023-11-22T00:25:50;99550.66;;;5.05;75.25
65666;BME280;52365;47.464;18.976;2023-11-22T00:26:12;99562.41;;;5.08;75.17
65666;BME280;52365;47.464;18.976;2023-11-22T00:26:33;99551.97;;;5.13;75.06
65666;BME280;52365;47.464;18.976;2023-11-22T00:26:55;99554.97;;;5.15;74.90
65666;BME280;52365;47.464;18.976;2023-11-22T00:27:16;99557.00;;;5.11;74.76
65666;BME280;52365;47.464;18.976;2023-11-22T00:27:37;99564.03;;;5.05;74.83
65666;BME280;52365;47.464;18.976;2023-11-22T00:27:58;99554.09;;;5.05;74.89
65666;BME280;52365;47.464;18.976;2023-11-22T00:28:19;99560.50;;;5.08;74.94
65666;BME280;52365;47.464;18.976;2023-11-22T00:28:40;99559.44;;;5.05;74.94
65666;BME280;52365;47.464;18.976;2023-11-22T00:29:01;99556.41;;;5.03;75.01
65666;BME280;52365;47.464;18.976;2023-11-22T00:29:22;99556.31;;;5.07;75.02
65666;BME280;52365;47.464;18.976;2023-11-22T00:29:44;99562.75;;;5.10;75.01
65666;BME280;52365;47.464;18.976;2023-11-22T00:30:05;99557.72;;;5.12;75.06
65666;BME280;52365;47.464;18.976;2023-11-22T00:30:26;99563.41;;;5.14;75.00
65666;BME280;52365;47.464;18.976;2023-11-22T00:30:47;99561.59;;;5.11;75.01
65666;BME280;52365;47.464;18.976;2023-11-22T00:31:08;99550.56;;;5.09;75.04
65666;BME280;52365;47.464;18.976;2023-11-22T00:31:29;99556.25;;;5.11;75.05
65666;BME280;52365;47.464;18.976;2023-11-22T00:31:50;99558.06;;;5.14;75.07
65666;BME280;52365;47.464;18.976;2023-11-22T00:32:12;99562.25;;;5.15;75.06
65666;BME280;52365;47.464;18.976;2023-11-22T00:32:33;99558.47;;;5.12;75.03
65666;BME280;52365;47.464;18.976;2023-11-22T00:32:54;99560.25;;;5.02;74.99
65666;BME280;52365;47.464;18.976;2023-11-22T00:33:15;99562.62;;;4.84;74.98
65666;BME280;52365;47.464;18.976;2023-11-22T00:33:36;99560.78;;;4.81;75.20
65666;BME280;52365;47.464;18.976;2023-11-22T00:33:57;99560.94;;;4.90;75.35
65666;BME280;52365;47.464;18.976;2023-11-22T00:34:18;99560.50;;;5.08;75.25
65666;BME280;52365;47.464;18.976;2023-11-22T00:34:39;99561.59;;;5.11;75.12
65666;BME280;52365;47.464;18.976;2023-11-22T00:35:00;99558.25;;;5.07;75.06
65666;BME280;52365;47.464;18.976;2023-11-22T00:35:21;99556.91;;;5.15;74.93
65666;BME280;52365;47.464;18.976;2023-11-22T00:35:44;99561.09;;;4.99;74.92
65666;BME280;52365;47.464;18.976;2023-11-22T00:36:05;99557.16;;;5.04;74.98
65666;BME280;52365;47.464;18.976;2023-11-22T00:36:28;99556.75;;;5.05;74.96
65666;BME280;52365;47.464;18.976;2023-11-22T00:36:50;99560.50;;;5.08;74.96
65666;BME280;52365;47.464;18.976;2023-11-22T00:37:11;99561.00;;;5.03;74.98
65666;BME280;52365;47.464;18.976;2023-11-22T00:37:32;99554.16;;;5.02;74.96
65666;BME280;52365;47.464;18.976;2023-11-22T00:37:53;99564.66;;;5.09;74.95
65666;BME280;52365;47.464;18.976;2023-11-22T00:38:14;99557.31;;;5.13;74.86
65666;BME280;52365;47.464;18.976;2023-11-22T00:38:35;99559.31;;;5.09;74.80
65666;BME280;52365;47.464;18.976;2023-11-22T00:38:58;99558.41;;;4.99;74.93
65666;BME280;52365;47.464;18.976;2023-11-22T00:39:19;99555.84;;;4.96;75.10
65666;BME280;52365;47.464;18.976;2023-11-22T00:39:40;99555.66;;;5.03;75.10
65666;BME280;52365;47.464;18.976;2023-11-22T00:40:02;99552.69;;;5.01;75.12
65666;BME280;52365;47.464;18.976;2023-11-22T00:40:31;99560.69;;;5.01;75.09
65666;BME280;52365;47.464;18.976;2023-11-22T00:40:52;99552.25;;;4.86;75.04
65666;BME280;52365;47.464;18.976;2023-11-22T00:41:13;99551.78;;;4.75;75.05
65666;BME280;52365;47.464;18.976;2023-11-22T00:41:37;99553.94;;;4.80;75.23
65666;BME280;52365;47.464;18.976;2023-11-22T00:41:58;99557.03;;;4.78;75.37
65666;BME280;52365;47.464;18.976;2023-11-22T00:42:19;99556.03;;;4.89;75.49
65666;BME280;52365;47.464;18.976;2023-11-22T00:42:41;99549.84;;;4.92;75.43
65666;BME280;52365;47.464;18.976;2023-11-22T00:43:05;99551.00;;;4.91;75.42
65666;BME280;52365;47.464;18.976;2023-11-22T00:43:26;99557.03;;;4.78;75.81
65666;BME280;52365;47.464;18.976;2023-11-22T00:43:47;99550.19;;;4.77;76.01
65666;BME280;52365;47.464;18.976;2023-11-22T00:44:08;99558.63;;;4.76;76.19
65666;BME280;52365;47.464;18.976;2023-11-22T00:44:30;99554.03;;;4.76;76.10
65666;BME280;52365;47.464;18.976;2023-11-22T00:44:51;99551.28;;;4.80;75.99
65666;BME280;52365;47.464;18.976;2023-11-22T00:45:12;99550.53;;;4.79;75.82
65666;BME280;52365;47.464;18.976;2023-11-22T00:45:33;99560.03;;;4.80;75.69
65666;BME280;52365;47.464;18.976;2023-11-22T00:45:54;99555.94;;;4.92;75.62
65666;BME280;52365;47.464;18.976;2023-11-22T00:46:15;99553.41;;;5.01;75.41
65666;BME280;52365;47.464;18.976;2023-11-22T00:46:36;99559.87;;;4.88;75.16
65666;BME280;52365;47.464;18.976;2023-11-22T00:47:00;99557.03;;;4.78;75.40
65666;BME280;52365;47.464;18.976;2023-11-22T00:47:21;99553.19;;;4.79;75.67
65666;BME280;52365;47.464;18.976;2023-11-22T00:47:43;99557.09;;;4.91;75.56
65666;BME280;52365;47.464;18.976;2023-11-22T00:48:04;99552.00;;;4.97;75.49
65666;BME280;52365;47.464;18.976;2023-11-22T00:48:25;99554.69;;;4.97;75.40
65666;BME280;52365;47.464;18.976;2023-11-22T00:48:46;99557.75;;;4.95;75.36
65666;BME280;52365;47.464;18.976;2023-11-22T00:49:07;99559.94;;;4.84;75.42
65666;BME280;52365;47.464;18.976;2023-11-22T00:49:29;99555.00;;;4.83;75.48
65666;BME280;52365;47.464;18.976;2023-11-22T00:49:50;99545.00;;;4.87;75.50
65666;BME280;52365;47.464;18.976;2023-11-22T00:50:11;99563.09;;;4.95;75.43
65666;BME280;52365;47.464;18.976;2023-11-22T00:50:32;99550.75;;;5.01;75.31
65666;BME280;52365;47.464;18.976;2023-11-22T00:50:53;99546.06;;;5.05;75.01
65666;BME280;52365;47.464;18.976;2023-11-22T00:51:14;99559.00;;;5.07;74.84
65666;BME280;52365;47.464;18.976;2023-11-22T00:51:35;99550.31;;;5.03;74.77
65666;BME280;52365;47.464;18.976;2023-11-22T00:51:56;99550.09;;;4.97;74.82
65666;BME280;52365;47.464;18.976;2023-11-22T00:52:17;99555.84;;;4.96;74.89
65666;BME280;52365;47.464;18.976;2023-11-22T00:52:39;99557.66;;;4.99;74.96
65666;BME280;52365;47.464;18.976;2023-11-22T00:53:00;99556.59;;;4.96;75.04
65666;BME280;52365;47.464;18.976;2023-11-22T00:53:22;99548.81;;;5.02;74.98
65666;BME280;52365;47.464;18.976;2023-11-22T00:53:44;99557.97;;;5.17;74.77
65666;BME280;52365;47.464;18.976;2023-11-22T00:54:05;99553.06;;;5.16;74.68
65666;BME280;52365;47.464;18.976;2023-11-22T00:54:26;99549.28;;;5.13;74.60
65666;BME280;52365;47.464;18.976;2023-11-22T00:54:47;99548.75;;;5.05;74.63
65666;BME280;52365;47.464;18.976;2023-11-22T00:55:08;99547.12;;;5.08;74.68
65666;BME280;52365;47.464;18.976;2023-11-22T00:55:29;99546.47;;;5.04;74.75
65666;BME280;52365;47.464;18.976;2023-11-22T00:55:50;99551.81;;;5.04;74.77
65666;BME280;52365;47.464;18.976;2023-11-22T00:56:11;99552.34;;;4.99;74.85
65666;BME280;52365;47.464;18.976;2023-11-22T00:56:32;99547.81;;;4.96;74.99
65666;BME280;52365;47.464;18.976;2023-11-22T00:56:54;99554.59;;;4.84;75.03
65666;BME280;52365;47.464;18.976;2023-11-22T00:57:15;99545.59;;;4.78;75.17
65666;BME280;52365;47.464;18.976;2023-11-22T00:57:36;99547.25;;;4.88;75.23
65666;BME280;52365;47.464;18.976;2023-11-22T00:57:57;99542.31;;;4.87;75.22
65666;BME280;52365;47.464;18.976;2023-11-22T00:58:24;99545.84;;;4.84;75.23
65666;BME280;52365;47.464;18.976;2023-11-22T00:58:45;99546.50;;;4.88;75.29
65666;BME280;52365;47.464;18.976;2023-11-22T00:59:06;99545.00;;;4.87;75.25
65666;BME280;52365;47.464;18.976;2023-11-22T00:59:27;99546.00;;;4.93;75.21
65666;BME280;52365;47.464;18.976;2023-11-22T00:59:48;99544.09;;;4.93;75.13
65666;BME280;52365;47.464;18.976;2023-11-22T01:00:09;99551.34;;;4.93;75.05
65666;BME280;52365;47.464;18.976;2023-11-22T01:00:32;99543.34;;;4.93;75.01
65666;BME280;52365;47.464;18.976;2023-11-22T01:00:53;99543.34;;;4.93;74.99
65666;BME280;52365;47.464;18.976;2023-11-22T01:01:14;99543.84;;;4.88;74.82
65666;BME280;52365;47.464;18.976;2023-11-22T01:01:35;99546.16;;;4.86;74.78
65666;BME280;52365;47.464;18.976;2023-11-22T01:01:56;99548.38;;;4.74;74.77
65666;BME280;52365;47.464;18.976;2023-11-22T01:02:17;99551.84;;;4.88;75.03
65666;BME280;52365;47.464;18.976;2023-11-22T01:02:38;99549.66;;;4.99;74.93
65666;BME280;52365;47.464;18.976;2023-11-22T01:03:00;99551.94;;;5.00;74.81
65666;BME280;52365;47.464;18.976;2023-11-22T01:03:21;99558.69;;;5.05;74.69
65666;BME280;52365;47.464;18.976;2023-11-22T01:03:42;99553.38;;;5.18;74.51
65666;BME280;52365;47.464;18.976;2023-11-22T01:04:03;99547.41;;;5.26;74.24
65666;BME280;52365;47.464;18.976;2023-11-22T01:04:25;99549.59;;;5.32;74.02
65666;BME280;52365;47.464;18.976;2023-11-22T01:04:46;99551.13;;;5.16;73.98
65666;BME280;52365;47.464;18.976;2023-11-22T01:05:07;99555.34;;;5.01;74.07
65666;BME280;52365;47.464;18.976;2023-11-22T01:05:31;99547.25;;;4.88;74.31
65666;BME280;52365;47.464;18.976;2023-11-22T01:05:52;99550.41;;;4.99;74.46
65666;BME280;52365;47.464;18.976;2023-11-22T01:06:14;99553.88;;;5.13;74.40
65666;BME280;52365;47.464;18.976;2023-11-22T01:06:35;99546.28;;;5.27;74.10
65666;BME280;52365;47.464;18.976;2023-11-22T01:06:57;99553.78;;;5.33;73.89
65666;BME280;52365;47.464;18.976;2023-11-22T01:07:18;99556.22;;;5.40;73.65
65666;BME280;52365;47.464;18.976;2023-11-22T01:07:39;99552.69;;;5.59;73.19
65666;BME280;52365;47.464;18.976;2023-11-22T01:08:00;99551.69;;;5.53;73.11
65666;BME280;52365;47.464;18.976;2023-11-22T01:08:21;99551.94;;;5.29;73.56
65666;BME280;52365;47.464;18.976;2023-11-22T01:08:42;99553.09;;;5.28;73.59
65666;BME280;52365;47.464;18.976;2023-11-22T01:09:03;99552.44;;;5.24;73.68
65666;BME280;52365;47.464;18.976;2023-11-22T01:09:24;99544.88;;;5.23;73.78
65666;BME280;52365;47.464;18.976;2023-11-22T01:09:45;99557.97;;;5.17;73.94
65666;BME280;52365;47.464;18.976;2023-11-22T01:10:07;99553.72;;;5.20;74.07
65666;BME280;52365;47.464;18.976;2023-11-22T01:10:28;99546.78;;;5.22;74.11
65666;BME280;52365;47.464;18.976;2023-11-22T01:10:49;99547.09;;;5.24;74.30
65666;BME280;52365;47.464;18.976;2023-11-22T01:11:10;99553.03;;;5.32;74.22
65666;BME280;52365;47.464;18.976;2023-11-22T01:11:31;99553.78;;;5.33;74.23
65666;BME280;52365;47.464;18.976;2023-11-22T01:11:52;99552.13;;;5.22;74.29
65666;BME280;52365;47.464;18.976;2023-11-22T01:12:13;99551.56;;;5.15;74.43
65666;BME280;52365;47.464;18.976;2023-11-22T01:12:34;99558.47;;;5.12;74.58
65666;BME280;52365;47.464;18.976;2023-11-22T01:12:55;99555.62;;;5.19;74.69
65666;BME280;52365;47.464;18.976;2023-11-22T01:13:16;99557.56;;;5.19;74.76
65666;BME280;52365;47.464;18.976;2023-11-22T01:13:37;99558.72;;;5.18;74.81
65666;BME280;52365;47.464;18.976;2023-11-22T01:14:01;99563.06;;;5.12;74.86
65666;BME280;52365;47.464;18.976;2023-11-22T01:14:22;99561.50;;;5.14;74.96
65666;BME280;52365;47.464;18.976;2023-11-22T01:14:44;99566.50;;;5.12;74.96
65666;BME280;52365;47.464;18.976;2023-11-22T01:15:06;99566.09;;;5.14;75.01
65666;BME280;52365;47.464;18.976;2023-11-22T01:15:27;99567.31;;;5.09;75.03
65666;BME280;52365;47.464;18.976;2023-11-22T01:15:48;99568.50;;;5.08;75.04
65666;BME280;52365;47.464;18.976;2023-11-22T01:16:10;99568.50;;;5.08;75.14
65666;BME280;52365;47.464;18.976;2023-11-22T01:16:31;99571.66;;;5.19;75.18
65666;BME280;52365;47.464;18.976;2023-11-22T01:16:53;99566.78;;;5.30;75.02
65666;BME280;52365;47.464;18.976;2023-11-22T01:17:17;99565.91;;;5.21;74.90
65666;BME280;52365;47.464;18.976;2023-11-22T01:17:38;99564.63;;;5.25;74.89
65666;BME280;52365;47.464;18.976;2023-11-22T01:18:00;99571.28;;;5.34;74.86
65666;BME280;52365;47.464;18.976;2023-11-22T01:18:21;99570.69;;;5.42;74.71
65666;BME280;52365;47.464;18.976;2023-11-22T01:18:42;99576.03;;;5.42;74.61
65666;BME280;52365;47.464;18.976;2023-11-22T01:19:03;99573.97;;;5.34;74.68
65666;BME280;52365;47.464;18.976;2023-11-22T01:19:25;99567.22;;;5.29;74.77
65666;BME280;52365;47.464;18.976;2023-11-22T01:19:46;99575.72;;;5.40;74.80
65666;BME280;52365;47.464;18.976;2023-11-22T01:20:08;99578.94;;;5.48;74.77
65666;BME280;52365;47.464;18.976;2023-11-22T01:20:31;99573.34;;;5.42;74.76
65666;BME280;52365;47.464;18.976;2023-11-22T01:20:52;99575.28;;;5.42;74.76
65666;BME280;52365;47.464;18.976;2023-11-22T01:21:13;99582.13;;;5.43;74.77
65666;BME280;52365;47.464;18.976;2023-11-22T01:21:34;99580.63;;;5.42;74.74
65666;BME280;52365;47.464;18.976;2023-11-22T01:21:56;99580.81;;;5.35;74.80
65666;BME280;52365;47.464;18.976;2023-11-22T01:22:17;99578.06;;;5.22;75.04
65666;BME280;52365;47.464;18.976;2023-11-22T01:22:38;99576.81;;;5.26;75.23
65666;BME280;52365;47.464;18.976;2023-11-22T01:22:54;99581.66;;;5.32;75.23
65666;BME280;52365;47.464;18.976;2023-11-22T01:23:15;99582.41;;;5.32;75.31
65666;BME280;52365;47.464;18.976;2023-11-22T01:23:36;99577.47;;;5.30;75.31
65666;BME280;52365;47.464;18.976;2023-11-22T01:23:57;99579.22;;;5.37;75.31
65666;BME280;52365;47.464;18.976;2023-11-22T01:24:18;99579.03;;;5.44;75.22
65666;BME280;52365;47.464;18.976;2023-11-22T01:24:39;99582.69;;;5.50;75.22
65666;BME280;52365;47.464;18.976;2023-11-22T01:25:00;99579.28;;;5.50;75.19
65666;BME280;52365;47.464;18.976;2023-11-22T01:25:22;99579.69;;;5.48;75.22
65666;BME280;52365;47.464;18.976;2023-11-22T01:25:43;99579.78;;;5.45;75.33
65666;BME280;52365;47.464;18.976;2023-11-22T01:26:04;99573.69;;;5.44;75.38
65666;BME280;52365;47.464;18.976;2023-11-22T01:26:26;99576.31;;;5.32;75.43
65666;BME280;52365;47.464;18.976;2023-11-22T01:26:47;99574.56;;;5.25;75.55
65666;BME280;52365;47.464;18.976;2023-11-22T01:27:08;99575.28;;;5.42;75.61
65666;BME280;52365;47.464;18.976;2023-11-22T01:27:29;99575.34;;;5.54;75.45
65666;BME280;52365;47.464;18.976;2023-11-22T01:27:51;99577.56;;;5.56;75.37
65666;BME280;52365;47.464;18.976;2023-11-22T01:28:12;99578.22;;;5.60;75.18
65666;BME280;52365;47.464;18.976;2023-11-22T01:28:33;99581.47;;;5.68;74.97
65666;BME280;52365;47.464;18.976;2023-11-22T01:28:55;99579.53;;;5.68;74.85
65666;BME280;52365;47.464;18.976;2023-11-22T01:29:16;99580.78;;;5.51;75.04
65666;BME280;52365;47.464;18.976;2023-11-22T01:29:37;99581.94;;;5.50;75.20
65666;BME280;52365;47.464;18.976;2023-11-22T01:29:58;99588.84;;;5.64;75.13
65666;BME280;52365;47.464;18.976;2023-11-22T01:30:19;99586.91;;;5.64;75.07
65666;BME280;52365;47.464;18.976;2023-11-22T01:30:40;99582.53;;;5.70;74.99
65666;BME280;52365;47.464;18.976;2023-11-22T01:31:01;99583.31;;;5.71;75.00
65666;BME280;52365;47.464;18.976;2023-11-22T01:31:23;99578.03;;;5.67;75.00
65666;BME280;52365;47.464;18.976;2023-11-22T01:31:44;99580.09;;;5.76;74.91
65666;BME280;52365;47.464;18.976;2023-11-22T01:32:05;99580.00;;;5.79;74.85
65666;BME280;52365;47.464;18.976;2023-11-22T01:32:26;99580.22;;;5.85;74.67
65666;BME280;52365;47.464;18.976;2023-11-22T01:32:47;99584.81;;;5.85;74.68
65666;BME280;52365;47.464;18.976;2023-11-22T01:33:10;99584.69;;;5.88;74.58
65666;BME280;52365;47.464;18.976;2023-11-22T01:33:30;99584.28;;;5.77;74.64
65666;BME280;52365;47.464;18.976;2023-11-22T01:33:53;99577.72;;;5.65;74.82
65666;BME280;52365;47.464;18.976;2023-11-22T01:34:15;99582.69;;;5.79;74.82
65666;BME280;52365;47.464;18.976;2023-11-22T01:34:36;99583.13;;;5.91;74.63
65666;BME280;52365;47.464;18.976;2023-11-22T01:34:57;99584.09;;;5.97;74.45
65666;BME280;52365;47.464;18.976;2023-11-22T01:35:19;99579.84;;;5.99;74.29
65666;BME280;52365;47.464;18.976;2023-11-22T01:35:40;99569.59;;;5.98;74.24
65666;BME280;52365;47.464;18.976;2023-11-22T01:36:02;99577.69;;;5.94;74.21
65666;BME280;52365;47.464;18.976;2023-11-22T01:36:23;99572.56;;;6.00;74.21
65666;BME280;52365;47.464;18.976;2023-11-22T01:36:49;99581.16;;;6.08;74.12
65666;BME280;52365;47.464;18.976;2023-11-22T01:37:10;99575.28;;;5.84;74.44
65666;BME280;52365;47.464;18.976;2023-11-22T01:37:32;99574.84;;;5.72;74.79
65666;BME280;52365;47.464;18.976;2023-11-22T01:37:53;99582.44;;;5.74;74.93
65666;BME280;52365;47.464;18.976;2023-11-22T01:38:14;99575.81;;;5.78;75.07
65666;BME280;52365;47.464;18.976;2023-11-22T01:38:35;99587.78;;;5.74;75.37
65666;BME280;52365;47.464;18.976;2023-11-22T01:38:56;99578.16;;;5.76;75.45
65666;BME280;52365;47.464;18.976;2023-11-22T01:39:17;99569.94;;;5.84;75.52
65666;BME280;52365;47.464;18.976;2023-11-22T01:39:41;99576.28;;;5.90;75.54
65666;BME280;52365;47.464;18.976;2023-11-22T01:40:03;99576.09;;;5.97;75.56
65666;BME280;52365;47.464;18.976;2023-11-22T01:40:25;99582.00;;;6.17;75.14
65666;BME280;52365;47.464;18.976;2023-11-22T01:40:47;99571.75;;;6.16;75.01
65666;BME280;52365;47.464;18.976;2023-11-22T01:41:08;99582.44;;;6.16;74.93
65666;BME280;52365;47.464;18.976;2023-11-22T01:41:29;99579.34;;;6.30;74.62
65666;BME280;52365;47.464;18.976;2023-11-22T01:41:50;99579.66;;;6.32;74.40
65666;BME280;52365;47.464;18.976;2023-11-22T01:42:11;99585.66;;;6.36;74.16
65666;BME280;52365;47.464;18.976;2023-11-22T01:42:32;99587.56;;;6.48;73.99
65666;BME280;52365;47.464;18.976;2023-11-22T01:42:53;99576.13;;;6.48;73.75
65666;BME280;52365;47.464;18.976;2023-11-22T01:43:19;99584.69;;;6.30;74.12
65666;BME280;52365;47.464;18.976;2023-11-22T01:43:40;99581.03;;;5.98;75.01
65666;BME280;52365;47.464;18.976;2023-11-22T01:44:02;99581.37;;;5.71;76.14
65666;BME280;52365;47.464;18.976;2023-11-22T01:44:23;99588.22;;;5.72;76.69
65666;BME280;52365;47.464;18.976;2023-11-22T01:44:44;99577.00;;;5.77;76.89
65666;BME280;52365;47.464;18.976;2023-11-22T01:45:09;99585.38;;;5.92;76.83
65666;BME280;52365;47.464;18.976;2023-11-22T01:45:30;99585.94;;;6.00;76.68
65666;BME280;52365;47.464;18.976;2023-11-22T01:45:52;99585.19;;;5.99;76.60
65666;BME280;52365;47.464;18.976;2023-11-22T01:46:23;99585.62;;;5.98;76.58
65666;BME280;52365;47.464;18.976;2023-11-22T01:46:44;99587.88;;;5.99;76.59
65666;BME280;52365;47.464;18.976;2023-11-22T01:47:06;99586.94;;;6.06;76.54
65666;BME280;52365;47.464;18.976;2023-11-22T01:47:27;99587.97;;;6.09;76.44
65666;BME280;52365;47.464;18.976;2023-11-22T01:47:48;99583.84;;;6.20;76.24
65666;BME280;52365;47.464;18.976;2023-11-22T01:48:10;99579.03;;;6.15;76.31
65666;BME280;52365;47.464;18.976;2023-11-22T01:48:32;99582.34;;;6.19;76.29
65666;BME280;52365;47.464;18.976;2023-11-22T01:48:54;99576.66;;;6.17;76.20
65666;BME280;52365;47.464;18.976;2023-11-22T01:49:15;99580.63;;;6.25;76.07
65666;BME280;52365;47.464;18.976;2023-11-22T01:49:36;99583.28;;;6.13;76.17
65666;BME280;52365;47.464;18.976;2023-11-22T01:49:57;99580.72;;;6.09;76.27
65666;BME280;52365;47.464;18.976;2023-11-22T01:50:19;99579.44;;;6.14;76.28
65666;BME280;52365;47.464;18.976;2023-11-22T01:50:42;99584.78;;;6.14;76.34
65666;BME280;52365;47.464;18.976;2023-11-22T01:51:05;99576.34;;;6.15;76.27
65666;BME280;52365;47.464;18.976;2023-11-22T01:51:26;99579.66;;;6.19;76.24
65666;BME280;52365;47.464;18.976;2023-11-22T01:51:47;99584.78;;;6.26;76.11
65666;BME280;52365;47.464;18.976;2023-11-22T01:52:09;99581.69;;;6.15;76.08
65666;BME280;52365;47.464;18.976;2023-11-22T01:52:31;99579.88;;;6.12;76.15
65666;BME280;52365;47.464;18.976;2023-11-22T01:52:53;99578.78;;;6.22;76.20
65666;BME280;52365;47.464;18.976;2023-11-22T01:53:15;99581.37;;;6.26;76.16